sensor_id;sensor_type;location;lat;lon;timestamp;P1;durP1;ratioP1;P2;durP2;ratioP2
9801;SDS011;4940;50.900;4.672;2022-09-17T00:00:23;3.92;;;1.20;;
9801;SDS011;4940;50.900;4.672;2022-09-17T00:02:52;8.52;;;1.10;;
9801;SDS011;4940;50.900;4.672;2022-09-17T00:05:20;7.13;;;1.10;;
9801;SDS011;4940;50.900;4.672;2022-09-17T00:07:47;1.92;;;0.82;;
9801;SDS011;4940;50.900;4.672;2022-09-17T00:10:16;6.97;;;1.25;;
9801;SDS011;4940;50.900;4.672;2022-09-17T00:12:43;4.70;;;1.20;;
9801;SDS011;4940;50.900;4.672;2022-09-17T00:15:11;4.68;;;1.40;;
9801;SDS011;4940;50.900;4.672;2022-09-17T00:17:38;5.00;;;0.75;;
9801;SDS011;4940;50.900;4.672;2022-09-17T00:20:07;4.60;;;1.20;;
9801;SDS011;4940;50.900;4.672;2022-09-17T00:22:35;2.78;;;1.10;;
9801;SDS011;4940;50.900;4.672;2022-09-17T00:25:03;4.20;;;1.17;;
9801;SDS011;4940;50.900;4.672;2022-09-17T00:27:32;3.10;;;1.00;;
9801;SDS011;4940;50.900;4.672;2022-09-17T00:29:59;8.80;;;1.35;;
9801;SDS011;4940;50.900;4.672;2022-09-17T00:32:27;5.00;;;1.10;;
9801;SDS011;4940;50.900;4.672;2022-09-17T00:34:54;3.60;;;1.15;;
9801;SDS011;4940;50.900;4.672;2022-09-17T00:37:23;4.15;;;1.38;;
9801;SDS011;4940;50.900;4.672;2022-09-17T00:39:50;5.05;;;1.02;;
9801;SDS011;4940;50.900;4.672;2022-09-17T00:42:17;3.53;;;1.00;;
9801;SDS011;4940;50.900;4.672;2022-09-17T00:44:47;6.13;;;1.35;;
9801;SDS011;4940;50.900;4.672;2022-09-17T00:47:24;2.50;;;1.00;;
9801;SDS011;4940;50.900;4.672;2022-09-17T00:49:55;5.28;;;1.13;;
9801;SDS011;4940;50.900;4.672;2022-09-17T00:52:27;6.45;;;1.20;;
9801;SDS011;4940;50.900;4.672;2022-09-17T00:54:59;3.25;;;1.10;;
9801;SDS011;4940;50.900;4.672;2022-09-17T00:57:31;4.35;;;1.50;;
9801;SDS011;4940;50.900;4.672;2022-09-17T00:59:58;12.50;;;1.40;;
9801;SDS011;4940;50.900;4.672;2022-09-17T01:02:25;9.13;;;1.20;;
9801;SDS011;4940;50.900;4.672;2022-09-17T01:04:53;2.42;;;1.02;;
9801;SDS011;4940;50.900;4.672;2022-09-17T01:07:34;5.35;;;1.30;;
9801;SDS011;4940;50.900;4.672;2022-09-17T01:10:18;7.05;;;1.58;;
9801;SDS011;4940;50.900;4.672;2022-09-17T01:13:00;4.30;;;1.23;;
9801;SDS011;4940;50.900;4.672;2022-09-17T01:15:34;2.83;;;1.30;;
9801;SDS011;4940;50.900;4.672;2022-09-17T01:18:11;7.50;;;1.95;;
9801;SDS011;4940;50.900;4.672;2022-09-17T01:20:57;8.85;;;1.50;;
9801;SDS011;4940;50.900;4.672;2022-09-17T01:24:03;7.57;;;1.40;;
9801;SDS011;4940;50.900;4.672;2022-09-17T01:29:59;6.95;;;1.30;;
9801;SDS011;4940;50.900;4.672;2022-09-17T01:32:40;5.75;;;0.95;;
9801;SDS011;4940;50.900;4.672;2022-09-17T01:35:12;12.23;;;1.38;;
9801;SDS011;4940;50.900;4.672;2022-09-17T01:37:45;1.17;;;0.70;;
9801;SDS011;4940;50.900;4.672;2022-09-17T01:40:16;5.22;;;1.00;;
9801;SDS011;4940;50.900;4.672;2022-09-17T01:42:50;5.82;;;1.27;;
9801;SDS011;4940;50.900;4.672;2022-09-17T01:45:24;7.07;;;1.20;;
9801;SDS011;4940;50.900;4.672;2022-09-17T01:47:56;3.15;;;1.00;;
9801;SDS011;4940;50.900;4.672;2022-09-17T01:50:30;8.45;;;1.20;;
9801;SDS011;4940;50.900;4.672;2022-09-17T01:53:02;3.75;;;1.40;;
9801;SDS011;4940;50.900;4.672;2022-09-17T01:55:30;2.95;;;0.90;;
9801;SDS011;4940;50.900;4.672;2022-09-17T01:58:01;6.10;;;1.02;;
9801;SDS011;4940;50.900;4.672;2022-09-17T02:00:32;6.03;;;1.17;;
9801;SDS011;4940;50.900;4.672;2022-09-17T02:03:05;6.57;;;1.30;;
9801;SDS011;4940;50.900;4.672;2022-09-17T02:05:38;7.80;;;1.02;;
9801;SDS011;4940;50.900;4.672;2022-09-17T02:08:08;3.53;;;1.23;;
9801;SDS011;4940;50.900;4.672;2022-09-17T02:10:41;3.53;;;1.30;;
9801;SDS011;4940;50.900;4.672;2022-09-17T02:13:12;3.55;;;1.10;;
9801;SDS011;4940;50.900;4.672;2022-09-17T02:15:44;5.07;;;1.13;;
9801;SDS011;4940;50.900;4.672;2022-09-17T02:18:21;7.88;;;1.55;;
9801;SDS011;4940;50.900;4.672;2022-09-17T02:20:53;8.27;;;1.55;;
9801;SDS011;4940;50.900;4.672;2022-09-17T02:23:28;5.40;;;1.38;;
9801;SDS011;4940;50.900;4.672;2022-09-17T02:26:01;3.97;;;1.45;;
9801;SDS011;4940;50.900;4.672;2022-09-17T02:28:33;6.60;;;1.40;;
9801;SDS011;4940;50.900;4.672;2022-09-17T02:31:06;6.20;;;1.40;;
9801;SDS011;4940;50.900;4.672;2022-09-17T02:33:35;4.03;;;1.30;;
9801;SDS011;4940;50.900;4.672;2022-09-17T02:36:03;4.95;;;1.30;;
9801;SDS011;4940;50.900;4.672;2022-09-17T02:38:31;6.18;;;1.52;;
9801;SDS011;4940;50.900;4.672;2022-09-17T02:41:00;9.68;;;1.77;;
9801;SDS011;4940;50.900;4.672;2022-09-17T02:43:34;4.35;;;1.50;;
9801;SDS011;4940;50.900;4.672;2022-09-17T02:46:11;3.15;;;1.50;;
9801;SDS011;4940;50.900;4.672;2022-09-17T02:49:03;2.80;;;1.50;;
9801;SDS011;4940;50.900;4.672;2022-09-17T02:51:43;4.57;;;1.27;;
9801;SDS011;4940;50.900;4.672;2022-09-17T02:54:22;5.03;;;1.25;;
9801;SDS011;4940;50.900;4.672;2022-09-17T02:56:55;4.55;;;1.13;;
9801;SDS011;4940;50.900;4.672;2022-09-17T02:59:28;4.32;;;1.35;;
9801;SDS011;4940;50.900;4.672;2022-09-17T03:02:02;8.82;;;1.38;;
9801;SDS011;4940;50.900;4.672;2022-09-17T03:04:38;5.80;;;1.30;;
9801;SDS011;4940;50.900;4.672;2022-09-17T03:07:07;4.88;;;1.20;;
9801;SDS011;4940;50.900;4.672;2022-09-17T03:09:36;5.55;;;1.50;;
9801;SDS011;4940;50.900;4.672;2022-09-17T03:12:03;10.18;;;1.10;;
9801;SDS011;4940;50.900;4.672;2022-09-17T03:14:31;6.05;;;1.30;;
9801;SDS011;4940;50.900;4.672;2022-09-17T03:16:58;10.90;;;1.30;;
9801;SDS011;4940;50.900;4.672;2022-09-17T03:19:25;7.28;;;1.50;;
9801;SDS011;4940;50.900;4.672;2022-09-17T03:21:54;9.27;;;1.77;;
9801;SDS011;4940;50.900;4.672;2022-09-17T03:24:21;8.25;;;1.42;;
9801;SDS011;4940;50.900;4.672;2022-09-17T03:26:48;6.07;;;1.55;;
9801;SDS011;4940;50.900;4.672;2022-09-17T03:29:17;4.68;;;1.05;;
9801;SDS011;4940;50.900;4.672;2022-09-17T03:31:45;6.07;;;1.30;;
9801;SDS011;4940;50.900;4.672;2022-09-17T03:34:12;7.43;;;1.40;;
9801;SDS011;4940;50.900;4.672;2022-09-17T03:36:39;10.88;;;1.50;;
9801;SDS011;4940;50.900;4.672;2022-09-17T03:39:08;12.52;;;1.30;;
9801;SDS011;4940;50.900;4.672;2022-09-17T03:41:35;3.92;;;1.65;;
9801;SDS011;4940;50.900;4.672;2022-09-17T03:44:02;7.38;;;1.73;;
9801;SDS011;4940;50.900;4.672;2022-09-17T03:46:29;4.95;;;1.20;;
9801;SDS011;4940;50.900;4.672;2022-09-17T03:48:56;9.13;;;1.25;;
9801;SDS011;4940;50.900;4.672;2022-09-17T03:51:24;7.47;;;1.10;;
9801;SDS011;4940;50.900;4.672;2022-09-17T03:53:51;6.63;;;1.02;;
9801;SDS011;4940;50.900;4.672;2022-09-17T03:56:20;4.85;;;1.20;;
9801;SDS011;4940;50.900;4.672;2022-09-17T03:58:47;5.22;;;1.10;;
9801;SDS011;4940;50.900;4.672;2022-09-17T04:01:14;6.95;;;1.25;;
9801;SDS011;4940;50.900;4.672;2022-09-17T04:03:42;9.30;;;1.30;;
9801;SDS011;4940;50.900;4.672;2022-09-17T04:06:10;6.55;;;1.25;;
9801;SDS011;4940;50.900;4.672;2022-09-17T04:08:37;7.55;;;0.82;;
9801;SDS011;4940;50.900;4.672;2022-09-17T04:11:04;5.50;;;1.10;;
9801;SDS011;4940;50.900;4.672;2022-09-17T04:13:34;10.00;;;1.58;;
9801;SDS011;4940;50.900;4.672;2022-09-17T04:16:01;7.75;;;1.48;;
9801;SDS011;4940;50.900;4.672;2022-09-17T04:18:29;9.57;;;1.52;;
9801;SDS011;4940;50.900;4.672;2022-09-17T04:20:56;4.88;;;1.20;;
9801;SDS011;4940;50.900;4.672;2022-09-17T04:23:23;6.10;;;1.25;;
9801;SDS011;4940;50.900;4.672;2022-09-17T04:25:50;10.85;;;1.67;;
9801;SDS011;4940;50.900;4.672;2022-09-17T04:28:18;5.05;;;1.48;;
9801;SDS011;4940;50.900;4.672;2022-09-17T04:30:47;5.68;;;1.70;;
9801;SDS011;4940;50.900;4.672;2022-09-17T04:33:15;6.60;;;1.25;;
9801;SDS011;4940;50.900;4.672;2022-09-17T04:35:42;6.50;;;1.55;;
9801;SDS011;4940;50.900;4.672;2022-09-17T04:38:10;5.22;;;1.23;;
9801;SDS011;4940;50.900;4.672;2022-09-17T04:40:42;9.80;;;1.52;;
9801;SDS011;4940;50.900;4.672;2022-09-17T04:43:10;10.32;;;1.88;;
9801;SDS011;4940;50.900;4.672;2022-09-17T04:45:37;9.18;;;1.63;;
9801;SDS011;4940;50.900;4.672;2022-09-17T04:48:06;7.75;;;1.40;;
9801;SDS011;4940;50.900;4.672;2022-09-17T04:50:34;6.60;;;1.42;;
9801;SDS011;4940;50.900;4.672;2022-09-17T04:53:01;8.38;;;1.58;;
9801;SDS011;4940;50.900;4.672;2022-09-17T04:55:28;14.30;;;2.03;;
9801;SDS011;4940;50.900;4.672;2022-09-17T04:57:56;6.75;;;1.50;;
9801;SDS011;4940;50.900;4.672;2022-09-17T05:00:23;12.60;;;1.80;;
9801;SDS011;4940;50.900;4.672;2022-09-17T05:02:51;4.95;;;1.40;;
9801;SDS011;4940;50.900;4.672;2022-09-17T05:05:21;8.77;;;1.50;;
9801;SDS011;4940;50.900;4.672;2022-09-17T05:07:49;8.23;;;1.52;;
9801;SDS011;4940;50.900;4.672;2022-09-17T05:10:16;9.68;;;1.45;;
9801;SDS011;4940;50.900;4.672;2022-09-17T05:12:48;9.23;;;1.50;;
9801;SDS011;4940;50.900;4.672;2022-09-17T05:15:15;5.72;;;1.50;;
9801;SDS011;4940;50.900;4.672;2022-09-17T05:17:43;12.63;;;1.60;;
9801;SDS011;4940;50.900;4.672;2022-09-17T05:20:10;3.53;;;1.08;;
9801;SDS011;4940;50.900;4.672;2022-09-17T05:22:43;4.13;;;1.52;;
9801;SDS011;4940;50.900;4.672;2022-09-17T05:25:11;6.65;;;1.25;;
9801;SDS011;4940;50.900;4.672;2022-09-17T05:27:40;8.05;;;1.38;;
9801;SDS011;4940;50.900;4.672;2022-09-17T05:30:08;7.80;;;1.33;;
9801;SDS011;4940;50.900;4.672;2022-09-17T05:32:37;7.85;;;0.93;;
9801;SDS011;4940;50.900;4.672;2022-09-17T05:35:05;3.45;;;1.27;;
9801;SDS011;4940;50.900;4.672;2022-09-17T05:37:33;7.80;;;1.10;;
9801;SDS011;4940;50.900;4.672;2022-09-17T05:40:02;6.97;;;1.42;;
9801;SDS011;4940;50.900;4.672;2022-09-17T05:42:32;9.38;;;1.70;;
9801;SDS011;4940;50.900;4.672;2022-09-17T05:44:59;7.13;;;1.55;;
9801;SDS011;4940;50.900;4.672;2022-09-17T05:47:26;7.53;;;1.23;;
9801;SDS011;4940;50.900;4.672;2022-09-17T05:49:54;13.05;;;2.03;;
9801;SDS011;4940;50.900;4.672;2022-09-17T05:52:20;14.07;;;1.83;;
9801;SDS011;4940;50.900;4.672;2022-09-17T05:54:48;8.45;;;2.08;;
9801;SDS011;4940;50.900;4.672;2022-09-17T05:57:16;7.15;;;1.80;;
9801;SDS011;4940;50.900;4.672;2022-09-17T05:59:44;6.20;;;1.67;;
9801;SDS011;4940;50.900;4.672;2022-09-17T06:02:12;11.25;;;1.80;;
9801;SDS011;4940;50.900;4.672;2022-09-17T06:04:39;9.75;;;1.75;;
9801;SDS011;4940;50.900;4.672;2022-09-17T06:07:06;6.72;;;1.35;;
9801;SDS011;4940;50.900;4.672;2022-09-17T06:09:34;10.63;;;2.15;;
9801;SDS011;4940;50.900;4.672;2022-09-17T06:12:03;7.30;;;1.50;;
9801;SDS011;4940;50.900;4.672;2022-09-17T06:14:31;10.32;;;1.75;;
9801;SDS011;4940;50.900;4.672;2022-09-17T06:16:58;13.20;;;1.52;;
9801;SDS011;4940;50.900;4.672;2022-09-17T06:19:26;3.95;;;1.20;;
9801;SDS011;4940;50.900;4.672;2022-09-17T06:21:54;8.13;;;1.38;;
9801;SDS011;4940;50.900;4.672;2022-09-17T06:24:21;6.25;;;1.40;;
9801;SDS011;4940;50.900;4.672;2022-09-17T06:26:48;6.63;;;1.30;;
9801;SDS011;4940;50.900;4.672;2022-09-17T06:29:16;8.30;;;1.25;;
9801;SDS011;4940;50.900;4.672;2022-09-17T06:31:46;7.95;;;1.40;;
9801;SDS011;4940;50.900;4.672;2022-09-17T06:34:13;10.88;;;1.63;;
9801;SDS011;4940;50.900;4.672;2022-09-17T06:36:40;8.45;;;1.70;;
9801;SDS011;4940;50.900;4.672;2022-09-17T06:39:08;5.22;;;1.38;;
9801;SDS011;4940;50.900;4.672;2022-09-17T06:41:36;6.65;;;1.80;;
9801;SDS011;4940;50.900;4.672;2022-09-17T06:44:03;9.68;;;1.45;;
9801;SDS011;4940;50.900;4.672;2022-09-17T06:46:30;6.68;;;1.80;;
9801;SDS011;4940;50.900;4.672;2022-09-17T06:48:59;6.55;;;1.52;;
9801;SDS011;4940;50.900;4.672;2022-09-17T06:51:26;13.60;;;2.15;;
9801;SDS011;4940;50.900;4.672;2022-09-17T06:53:54;10.35;;;2.00;;
9801;SDS011;4940;50.900;4.672;2022-09-17T06:56:21;9.82;;;1.85;;
9801;SDS011;4940;50.900;4.672;2022-09-17T06:58:48;11.30;;;1.77;;
9801;SDS011;4940;50.900;4.672;2022-09-17T07:01:15;10.77;;;1.80;;
9801;SDS011;4940;50.900;4.672;2022-09-17T07:03:42;10.98;;;1.55;;
9801;SDS011;4940;50.900;4.672;2022-09-17T07:06:11;3.92;;;1.90;;
9801;SDS011;4940;50.900;4.672;2022-09-17T07:08:38;4.88;;;1.30;;
9801;SDS011;4940;50.900;4.672;2022-09-17T07:11:05;8.65;;;1.60;;
9801;SDS011;4940;50.900;4.672;2022-09-17T07:13:33;7.40;;;2.10;;
9801;SDS011;4940;50.900;4.672;2022-09-17T07:16:01;10.32;;;1.67;;
9801;SDS011;4940;50.900;4.672;2022-09-17T07:18:29;7.55;;;1.90;;
9801;SDS011;4940;50.900;4.672;2022-09-17T07:20:57;5.32;;;1.55;;
9801;SDS011;4940;50.900;4.672;2022-09-17T07:23:27;8.68;;;1.67;;
9801;SDS011;4940;50.900;4.672;2022-09-17T07:25:56;4.82;;;1.50;;
9801;SDS011;4940;50.900;4.672;2022-09-17T07:28:24;5.47;;;1.50;;
9801;SDS011;4940;50.900;4.672;2022-09-17T07:30:53;7.50;;;1.33;;
9801;SDS011;4940;50.900;4.672;2022-09-17T07:33:21;5.50;;;1.38;;
9801;SDS011;4940;50.900;4.672;2022-09-17T07:35:52;7.88;;;1.48;;
9801;SDS011;4940;50.900;4.672;2022-09-17T07:38:20;5.25;;;1.40;;
9801;SDS011;4940;50.900;4.672;2022-09-17T07:40:54;7.38;;;1.35;;
9801;SDS011;4940;50.900;4.672;2022-09-17T07:43:22;8.18;;;1.70;;
9801;SDS011;4940;50.900;4.672;2022-09-17T07:45:50;5.20;;;1.55;;
9801;SDS011;4940;50.900;4.672;2022-09-17T07:48:17;12.07;;;1.55;;
9801;SDS011;4940;50.900;4.672;2022-09-17T07:50:44;10.13;;;1.70;;
9801;SDS011;4940;50.900;4.672;2022-09-17T07:53:12;12.00;;;1.27;;
9801;SDS011;4940;50.900;4.672;2022-09-17T07:55:39;8.68;;;1.75;;
9801;SDS011;4940;50.900;4.672;2022-09-17T07:58:08;6.53;;;1.63;;
9801;SDS011;4940;50.900;4.672;2022-09-17T08:00:35;6.07;;;1.35;;
9801;SDS011;4940;50.900;4.672;2022-09-17T08:03:03;3.95;;;1.30;;
9801;SDS011;4940;50.900;4.672;2022-09-17T08:05:30;5.22;;;1.33;;
9801;SDS011;4940;50.900;4.672;2022-09-17T08:07:58;7.65;;;1.67;;
9801;SDS011;4940;50.900;4.672;2022-09-17T08:10:26;8.70;;;1.50;;
9801;SDS011;4940;50.900;4.672;2022-09-17T08:12:54;6.57;;;1.83;;
9801;SDS011;4940;50.900;4.672;2022-09-17T08:15:23;5.13;;;1.17;;
9801;SDS011;4940;50.900;4.672;2022-09-17T08:17:51;2.88;;;1.23;;
9801;SDS011;4940;50.900;4.672;2022-09-17T08:20:18;5.43;;;1.40;;
9801;SDS011;4940;50.900;4.672;2022-09-17T08:22:46;6.85;;;1.52;;
9801;SDS011;4940;50.900;4.672;2022-09-17T08:25:13;5.90;;;1.42;;
9801;SDS011;4940;50.900;4.672;2022-09-17T08:27:40;5.15;;;1.55;;
9801;SDS011;4940;50.900;4.672;2022-09-17T08:30:08;5.97;;;1.25;;
9801;SDS011;4940;50.900;4.672;2022-09-17T08:32:37;3.47;;;1.13;;
9801;SDS011;4940;50.900;4.672;2022-09-17T08:35:04;4.20;;;0.93;;
9801;SDS011;4940;50.900;4.672;2022-09-17T08:37:32;6.65;;;1.20;;
9801;SDS011;4940;50.900;4.672;2022-09-17T08:39:59;4.43;;;1.33;;
9801;SDS011;4940;50.900;4.672;2022-09-17T08:42:29;3.60;;;1.48;;
9801;SDS011;4940;50.900;4.672;2022-09-17T08:45:01;10.68;;;1.30;;
9801;SDS011;4940;50.900;4.672;2022-09-17T08:47:32;5.07;;;1.17;;
9801;SDS011;4940;50.900;4.672;2022-09-17T08:50:04;5.38;;;1.10;;
9801;SDS011;4940;50.900;4.672;2022-09-17T08:52:38;4.75;;;1.38;;
9801;SDS011;4940;50.900;4.672;2022-09-17T08:55:34;3.28;;;1.38;;
9801;SDS011;4940;50.900;4.672;2022-09-17T09:00:54;11.35;;;2.30;;
9801;SDS011;4940;50.900;4.672;2022-09-17T09:03:31;3.85;;;1.30;;
9801;SDS011;4940;50.900;4.672;2022-09-17T09:06:11;8.57;;;1.73;;
9801;SDS011;4940;50.900;4.672;2022-09-17T09:08:41;3.88;;;1.25;;
9801;SDS011;4940;50.900;4.672;2022-09-17T09:11:12;7.10;;;1.42;;
9801;SDS011;4940;50.900;4.672;2022-09-17T09:13:42;2.47;;;1.30;;
9801;SDS011;4940;50.900;4.672;2022-09-17T09:16:13;2.95;;;0.90;;
9801;SDS011;4940;50.900;4.672;2022-09-17T09:18:43;5.25;;;1.50;;
9801;SDS011;4940;50.900;4.672;2022-09-17T09:21:19;7.88;;;1.50;;
9801;SDS011;4940;50.900;4.672;2022-09-17T09:23:52;4.88;;;1.10;;
9801;SDS011;4940;50.900;4.672;2022-09-17T09:26:23;3.97;;;0.95;;
9801;SDS011;4940;50.900;4.672;2022-09-17T09:29:06;3.78;;;1.30;;
9801;SDS011;4940;50.900;4.672;2022-09-17T09:31:46;7.28;;;1.45;;
9801;SDS011;4940;50.900;4.672;2022-09-17T09:34:25;4.57;;;1.27;;
9801;SDS011;4940;50.900;4.672;2022-09-17T09:36:57;6.28;;;1.25;;
9801;SDS011;4940;50.900;4.672;2022-09-17T09:39:35;5.55;;;1.33;;
9801;SDS011;4940;50.900;4.672;2022-09-17T09:42:07;5.05;;;1.65;;
9801;SDS011;4940;50.900;4.672;2022-09-17T09:44:40;4.00;;;0.73;;
9801;SDS011;4940;50.900;4.672;2022-09-17T09:47:10;2.70;;;0.88;;
9801;SDS011;4940;50.900;4.672;2022-09-17T09:49:59;2.95;;;0.93;;
9801;SDS011;4940;50.900;4.672;2022-09-17T09:52:39;4.78;;;1.10;;
9801;SDS011;4940;50.900;4.672;2022-09-17T09:55:20;4.82;;;1.50;;
9801;SDS011;4940;50.900;4.672;2022-09-17T09:58:04;6.28;;;1.25;;
9801;SDS011;4940;50.900;4.672;2022-09-17T10:00:37;4.65;;;1.10;;
9801;SDS011;4940;50.900;4.672;2022-09-17T10:03:09;2.08;;;1.02;;
9801;SDS011;4940;50.900;4.672;2022-09-17T10:05:39;3.88;;;1.30;;
9801;SDS011;4940;50.900;4.672;2022-09-17T10:08:18;3.53;;;1.75;;
9801;SDS011;4940;50.900;4.672;2022-09-17T10:10:53;4.93;;;1.23;;
9801;SDS011;4940;50.900;4.672;2022-09-17T10:13:22;4.60;;;1.45;;
9801;SDS011;4940;50.900;4.672;2022-09-17T10:15:49;2.50;;;1.00;;
9801;SDS011;4940;50.900;4.672;2022-09-17T10:18:17;7.70;;;1.27;;
9801;SDS011;4940;50.900;4.672;2022-09-17T10:20:52;3.10;;;0.90;;
9801;SDS011;4940;50.900;4.672;2022-09-17T10:23:23;2.33;;;0.90;;
9801;SDS011;4940;50.900;4.672;2022-09-17T10:25:52;4.53;;;0.90;;
9801;SDS011;4940;50.900;4.672;2022-09-17T10:28:31;5.85;;;0.90;;
9801;SDS011;4940;50.900;4.672;2022-09-17T10:31:01;3.75;;;0.57;;
9801;SDS011;4940;50.900;4.672;2022-09-17T10:33:31;3.00;;;0.68;;
9801;SDS011;4940;50.900;4.672;2022-09-17T10:36:01;1.00;;;0.50;;
9801;SDS011;4940;50.900;4.672;2022-09-17T10:38:33;5.07;;;0.75;;
9801;SDS011;4940;50.900;4.672;2022-09-17T10:41:08;0.75;;;0.43;;
9801;SDS011;4940;50.900;4.672;2022-09-17T10:43:43;1.45;;;0.60;;
9801;SDS011;4940;50.900;4.672;2022-09-17T10:46:12;0.57;;;0.30;;
9801;SDS011;4940;50.900;4.672;2022-09-17T10:48:42;1.30;;;0.32;;
9801;SDS011;4940;50.900;4.672;2022-09-17T10:51:23;1.92;;;0.45;;
9801;SDS011;4940;50.900;4.672;2022-09-17T10:53:57;1.52;;;0.60;;
9801;SDS011;4940;50.900;4.672;2022-09-17T10:56:41;1.85;;;0.60;;
9801;SDS011;4940;50.900;4.672;2022-09-17T10:59:20;3.47;;;0.70;;
9801;SDS011;4940;50.900;4.672;2022-09-17T11:02:10;0.80;;;0.57;;
9801;SDS011;4940;50.900;4.672;2022-09-17T11:05:06;1.20;;;0.77;;
9801;SDS011;4940;50.900;4.672;2022-09-17T11:07:53;1.48;;;0.70;;
9801;SDS011;4940;50.900;4.672;2022-09-17T11:10:28;3.95;;;0.95;;
9801;SDS011;4940;50.900;4.672;2022-09-17T11:13:03;3.28;;;0.60;;
9801;SDS011;4940;50.900;4.672;2022-09-17T11:15:39;2.28;;;0.60;;
9801;SDS011;4940;50.900;4.672;2022-09-17T11:18:23;1.38;;;0.40;;
9801;SDS011;4940;50.900;4.672;2022-09-17T11:21:12;1.65;;;0.50;;
9801;SDS011;4940;50.900;4.672;2022-09-17T11:24:15;1.02;;;0.52;;
9801;SDS011;4940;50.900;4.672;2022-09-17T11:27:12;2.45;;;0.60;;
9801;SDS011;4940;50.900;4.672;2022-09-17T11:29:53;1.55;;;0.60;;
9801;SDS011;4940;50.900;4.672;2022-09-17T11:32:35;4.35;;;0.50;;
9801;SDS011;4940;50.900;4.672;2022-09-17T11:35:10;2.35;;;1.00;;
9801;SDS011;4940;50.900;4.672;2022-09-17T11:37:42;2.65;;;0.85;;
9801;SDS011;4940;50.900;4.672;2022-09-17T11:40:15;1.23;;;0.57;;
9801;SDS011;4940;50.900;4.672;2022-09-17T11:42:49;2.03;;;0.70;;
9801;SDS011;4940;50.900;4.672;2022-09-17T11:45:21;2.33;;;0.80;;
9801;SDS011;4940;50.900;4.672;2022-09-17T11:47:53;2.47;;;0.80;;
9801;SDS011;4940;50.900;4.672;2022-09-17T11:50:26;3.53;;;0.80;;
9801;SDS011;4940;50.900;4.672;2022-09-17T11:52:59;4.57;;;0.98;;
9801;SDS011;4940;50.900;4.672;2022-09-17T11:55:32;2.28;;;0.85;;
9801;SDS011;4940;50.900;4.672;2022-09-17T11:58:09;1.45;;;0.75;;
9801;SDS011;4940;50.900;4.672;2022-09-17T12:00:42;5.78;;;1.33;;
9801;SDS011;4940;50.900;4.672;2022-09-17T12:03:15;2.47;;;0.82;;
9801;SDS011;4940;50.900;4.672;2022-09-17T12:05:49;6.25;;;0.80;;
9801;SDS011;4940;50.900;4.672;2022-09-17T12:08:20;1.55;;;0.57;;
9801;SDS011;4940;50.900;4.672;2022-09-17T12:10:51;2.08;;;0.63;;
9801;SDS011;4940;50.900;4.672;2022-09-17T12:13:31;2.60;;;0.80;;
9801;SDS011;4940;50.900;4.672;2022-09-17T12:16:13;3.78;;;0.85;;
9801;SDS011;4940;50.900;4.672;2022-09-17T12:18:49;4.30;;;1.13;;
9801;SDS011;4940;50.900;4.672;2022-09-17T12:21:28;7.10;;;1.10;;
9801;SDS011;4940;50.900;4.672;2022-09-17T12:24:02;2.15;;;0.70;;
9801;SDS011;4940;50.900;4.672;2022-09-17T12:26:45;6.22;;;1.00;;
9801;SDS011;4940;50.900;4.672;2022-09-17T12:32:34;5.22;;;1.00;;
9801;SDS011;4940;50.900;4.672;2022-09-17T12:35:27;4.10;;;0.98;;
9801;SDS011;4940;50.900;4.672;2022-09-17T12:38:14;4.10;;;1.30;;
9801;SDS011;4940;50.900;4.672;2022-09-17T12:40:53;4.55;;;1.17;;
9801;SDS011;4940;50.900;4.672;2022-09-17T12:43:32;5.10;;;1.45;;
9801;SDS011;4940;50.900;4.672;2022-09-17T12:46:15;7.40;;;1.25;;
9801;SDS011;4940;50.900;4.672;2022-09-17T12:49:00;6.20;;;1.30;;
9801;SDS011;4940;50.900;4.672;2022-09-17T12:51:53;5.32;;;1.23;;
9801;SDS011;4940;50.900;4.672;2022-09-17T12:57:31;8.32;;;1.35;;
9801;SDS011;4940;50.900;4.672;2022-09-17T13:00:07;3.95;;;1.20;;
9801;SDS011;4940;50.900;4.672;2022-09-17T13:02:39;5.75;;;1.10;;
9801;SDS011;4940;50.900;4.672;2022-09-17T13:11:27;7.55;;;1.10;;
9801;SDS011;4940;50.900;4.672;2022-09-17T13:14:21;8.18;;;1.83;;
9801;SDS011;4940;50.900;4.672;2022-09-17T13:16:57;4.45;;;1.08;;
9801;SDS011;4940;50.900;4.672;2022-09-17T13:19:32;8.60;;;1.50;;
9801;SDS011;4940;50.900;4.672;2022-09-17T13:22:05;6.57;;;1.27;;
9801;SDS011;4940;50.900;4.672;2022-09-17T13:24:34;6.22;;;1.27;;
9801;SDS011;4940;50.900;4.672;2022-09-17T13:27:03;5.93;;;1.50;;
9801;SDS011;4940;50.900;4.672;2022-09-17T13:32:46;3.97;;;1.60;;
9801;SDS011;4940;50.900;4.672;2022-09-17T13:38:17;6.70;;;1.55;;
9801;SDS011;4940;50.900;4.672;2022-09-17T13:40:47;6.18;;;1.35;;
9801;SDS011;4940;50.900;4.672;2022-09-17T13:43:15;5.78;;;1.73;;
9801;SDS011;4940;50.900;4.672;2022-09-17T13:48:36;6.28;;;1.40;;
9801;SDS011;4940;50.900;4.672;2022-09-17T13:54:14;6.47;;;1.50;;
9801;SDS011;4940;50.900;4.672;2022-09-17T13:56:44;4.75;;;1.10;;
9801;SDS011;4940;50.900;4.672;2022-09-17T13:59:15;6.80;;;1.45;;
9801;SDS011;4940;50.900;4.672;2022-09-17T14:04:45;3.83;;;1.08;;
9801;SDS011;4940;50.900;4.672;2022-09-17T14:07:30;2.35;;;0.88;;
9801;SDS011;4940;50.900;4.672;2022-09-17T14:09:59;3.72;;;1.08;;
9801;SDS011;4940;50.900;4.672;2022-09-17T14:15:31;3.42;;;0.98;;
9801;SDS011;4940;50.900;4.672;2022-09-17T14:18:36;7.38;;;1.10;;
9801;SDS011;4940;50.900;4.672;2022-09-17T14:21:22;4.78;;;0.88;;
9801;SDS011;4940;50.900;4.672;2022-09-17T14:23:55;4.13;;;0.95;;
9801;SDS011;4940;50.900;4.672;2022-09-17T14:26:38;2.72;;;0.75;;
9801;SDS011;4940;50.900;4.672;2022-09-17T14:29:26;2.17;;;0.65;;
9801;SDS011;4940;50.900;4.672;2022-09-17T14:32:05;2.85;;;0.80;;
9801;SDS011;4940;50.900;4.672;2022-09-17T14:34:33;3.92;;;0.88;;
9801;SDS011;4940;50.900;4.672;2022-09-17T14:37:02;2.20;;;0.75;;
9801;SDS011;4940;50.900;4.672;2022-09-17T14:39:35;0.80;;;0.60;;
9801;SDS011;4940;50.900;4.672;2022-09-17T14:42:03;3.03;;;0.60;;
9801;SDS011;4940;50.900;4.672;2022-09-17T14:44:35;2.17;;;0.40;;
9801;SDS011;4940;50.900;4.672;2022-09-17T14:47:05;4.80;;;0.60;;
9801;SDS011;4940;50.900;4.672;2022-09-17T14:49:37;1.10;;;0.70;;
9801;SDS011;4940;50.900;4.672;2022-09-17T14:52:18;1.33;;;0.55;;
9801;SDS011;4940;50.900;4.672;2022-09-17T14:57:51;3.75;;;0.90;;
9801;SDS011;4940;50.900;4.672;2022-09-17T15:00:20;1.95;;;0.50;;
9801;SDS011;4940;50.900;4.672;2022-09-17T15:02:49;2.22;;;0.77;;
9801;SDS011;4940;50.900;4.672;2022-09-17T15:05:24;2.42;;;0.88;;
9801;SDS011;4940;50.900;4.672;2022-09-17T15:10:50;2.45;;;0.70;;
9801;SDS011;4940;50.900;4.672;2022-09-17T15:13:20;2.90;;;0.75;;
9801;SDS011;4940;50.900;4.672;2022-09-17T15:15:52;1.98;;;0.63;;
9801;SDS011;4940;50.900;4.672;2022-09-17T15:18:27;2.42;;;0.75;;
9801;SDS011;4940;50.900;4.672;2022-09-17T15:21:01;3.05;;;0.55;;
9801;SDS011;4940;50.900;4.672;2022-09-17T15:23:32;2.13;;;0.90;;
9801;SDS011;4940;50.900;4.672;2022-09-17T15:26:02;2.17;;;0.55;;
9801;SDS011;4940;50.900;4.672;2022-09-17T15:28:32;2.85;;;0.75;;
9801;SDS011;4940;50.900;4.672;2022-09-17T15:31:02;2.25;;;0.52;;
9801;SDS011;4940;50.900;4.672;2022-09-17T15:33:30;2.28;;;0.70;;
9801;SDS011;4940;50.900;4.672;2022-09-17T15:36:00;1.10;;;0.60;;
9801;SDS011;4940;50.900;4.672;2022-09-17T15:38:44;3.40;;;0.50;;
9801;SDS011;4940;50.900;4.672;2022-09-17T15:41:26;2.28;;;0.85;;
9801;SDS011;4940;50.900;4.672;2022-09-17T15:44:05;2.80;;;1.05;;
9801;SDS011;4940;50.900;4.672;2022-09-17T15:46:38;1.60;;;0.80;;
9801;SDS011;4940;50.900;4.672;2022-09-17T15:51:55;3.38;;;0.70;;
9801;SDS011;4940;50.900;4.672;2022-09-17T15:54:52;2.38;;;1.20;;
9801;SDS011;4940;50.900;4.672;2022-09-17T15:57:21;4.93;;;1.00;;
9801;SDS011;4940;50.900;4.672;2022-09-17T15:59:49;6.28;;;1.10;;
9801;SDS011;4940;50.900;4.672;2022-09-17T16:02:23;3.47;;;1.08;;
9801;SDS011;4940;50.900;4.672;2022-09-17T16:07:57;5.07;;;0.95;;
9801;SDS011;4940;50.900;4.672;2022-09-17T16:10:46;6.25;;;1.20;;
9801;SDS011;4940;50.900;4.672;2022-09-17T16:13:15;1.63;;;1.02;;
9801;SDS011;4940;50.900;4.672;2022-09-17T16:15:42;4.35;;;1.00;;
9801;SDS011;4940;50.900;4.672;2022-09-17T16:18:13;5.18;;;0.95;;
9801;SDS011;4940;50.900;4.672;2022-09-17T16:20:41;5.72;;;1.05;;
9801;SDS011;4940;50.900;4.672;2022-09-17T16:23:08;6.88;;;1.23;;
9801;SDS011;4940;50.900;4.672;2022-09-17T16:25:36;1.23;;;0.68;;
9801;SDS011;4940;50.900;4.672;2022-09-17T16:28:11;4.10;;;0.88;;
9801;SDS011;4940;50.900;4.672;2022-09-17T16:30:42;2.88;;;0.75;;
9801;SDS011;4940;50.900;4.672;2022-09-17T16:33:12;4.53;;;0.88;;